sensor_id;sensor_type;location;lat;lon;timestamp;temperature;humidity
52979;DHT22;63430;53.186;6.598;2023-03-23T00:01:02;10.50;99.90
52979;DHT22;63430;53.186;6.598;2023-03-23T00:03:05;10.50;99.90
52979;DHT22;63430;53.186;6.598;2023-03-23T00:05:08;10.60;99.90
52979;DHT22;63430;53.186;6.598;2023-03-23T00:07:11;10.60;99.90
52979;DHT22;63430;53.186;6.598;2023-03-23T00:09:15;10.70;99.90
52979;DHT22;63430;53.186;6.598;2023-03-23T00:11:21;10.70;99.90
52979;DHT22;63430;53.186;6.598;2023-03-23T00:13:24;10.70;99.90
52979;DHT22;63430;53.186;6.598;2023-03-23T00:15:27;11.20;99.90
52979;DHT22;63430;53.186;6.598;2023-03-23T00:17:35;10.90;99.90
52979;DHT22;63430;53.186;6.598;2023-03-23T00:19:38;10.90;99.90
52979;DHT22;63430;53.186;6.598;2023-03-23T00:21:50;11.00;99.90
52979;DHT22;63430;53.186;6.598;2023-03-23T00:23:56;11.00;99.90
52979;DHT22;63430;53.186;6.598;2023-03-23T00:25:59;11.20;99.90
52979;DHT22;63430;53.186;6.598;2023-03-23T00:28:04;11.10;99.90
52979;DHT22;63430;53.186;6.598;2023-03-23T00:30:08;11.10;99.90
52979;DHT22;63430;53.186;6.598;2023-03-23T00:32:13;11.10;99.90
52979;DHT22;63430;53.186;6.598;2023-03-23T00:34:21;11.10;99.90
52979;DHT22;63430;53.186;6.598;2023-03-23T00:36:25;11.10;99.90
52979;DHT22;63430;53.186;6.598;2023-03-23T00:38:28;11.80;99.90
52979;DHT22;63430;53.186;6.598;2023-03-23T00:40:31;11.10;99.90
52979;DHT22;63430;53.186;6.598;2023-03-23T00:42:38;11.10;99.90
52979;DHT22;63430;53.186;6.598;2023-03-23T00:44:41;11.10;99.90
52979;DHT22;63430;53.186;6.598;2023-03-23T00:46:43;11.80;99.90
52979;DHT22;63430;53.186;6.598;2023-03-23T00:48:47;11.10;99.90
52979;DHT22;63430;53.186;6.598;2023-03-23T00:50:52;11.10;99.90
52979;DHT22;63430;53.186;6.598;2023-03-23T00:52:55;11.10;99.90
52979;DHT22;63430;53.186;6.598;2023-03-23T00:54:59;11.10;99.90
52979;DHT22;63430;53.186;6.598;2023-03-23T00:57:02;11.10;99.90
52979;DHT22;63430;53.186;6.598;2023-03-23T00:59:04;11.10;99.90
52979;DHT22;63430;53.186;6.598;2023-03-23T01:01:10;11.50;99.90
52979;DHT22;63430;53.186;6.598;2023-03-23T01:03:12;11.10;99.90
52979;DHT22;63430;53.186;6.598;2023-03-23T01:05:20;11.10;99.90
52979;DHT22;63430;53.186;6.598;2023-03-23T01:07:29;12.00;99.90
52979;DHT22;63430;53.186;6.598;2023-03-23T01:09:37;11.00;99.90
52979;DHT22;63430;53.186;6.598;2023-03-23T01:11:50;10.90;99.90
52979;DHT22;63430;53.186;6.598;2023-03-23T01:13:53;11.80;99.90
52979;DHT22;63430;53.186;6.598;2023-03-23T01:15:55;11.00;99.90
52979;DHT22;63430;53.186;6.598;2023-03-23T01:18:05;10.90;99.90
52979;DHT22;63430;53.186;6.598;2023-03-23T01:20:09;10.80;99.90
52979;DHT22;63430;53.186;6.598;2023-03-23T01:22:13;10.80;99.90
52979;DHT22;63430;53.186;6.598;2023-03-23T01:24:19;10.70;99.90
52979;DHT22;63430;53.186;6.598;2023-03-23T01:26:24;11.70;99.90
52979;DHT22;63430;53.186;6.598;2023-03-23T01:28:27;10.50;99.90
52979;DHT22;63430;53.186;6.598;2023-03-23T01:30:32;10.70;99.90
52979;DHT22;63430;53.186;6.598;2023-03-23T01:32:39;10.60;99.90
52979;DHT22;63430;53.186;6.598;2023-03-23T01:34:42;10.60;99.90
52979;DHT22;63430;53.186;6.598;2023-03-23T01:36:45;10.70;99.90
52979;DHT22;63430;53.186;6.598;2023-03-23T01:38:49;10.70;99.90
52979;DHT22;63430;53.186;6.598;2023-03-23T01:40:55;10.70;99.90
52979;DHT22;63430;53.186;6.598;2023-03-23T01:42:59;11.50;99.90
52979;DHT22;63430;53.186;6.598;2023-03-23T01:45:30;10.80;99.90
52979;DHT22;63430;53.186;6.598;2023-03-23T01:47:33;10.80;99.90
52979;DHT22;63430;53.186;6.598;2023-03-23T01:49:39;10.80;99.90
52979;DHT22;63430;53.186;6.598;2023-03-23T01:51:48;10.80;99.90
52979;DHT22;63430;53.186;6.598;2023-03-23T01:53:54;10.80;99.90
52979;DHT22;63430;53.186;6.598;2023-03-23T01:56:01;11.00;99.90
52979;DHT22;63430;53.186;6.598;2023-03-23T01:58:05;10.80;99.90
52979;DHT22;63430;53.186;6.598;2023-03-23T02:00:10;10.70;99.90
52979;DHT22;63430;53.186;6.598;2023-03-23T02:02:26;10.80;99.90
52979;DHT22;63430;53.186;6.598;2023-03-23T02:04:33;11.00;99.90
52979;DHT22;63430;53.186;6.598;2023-03-23T02:06:36;11.00;99.90
52979;DHT22;63430;53.186;6.598;2023-03-23T02:08:48;11.00;99.90
52979;DHT22;63430;53.186;6.598;2023-03-23T02:10:55;11.10;99.90
52979;DHT22;63430;53.186;6.598;2023-03-23T02:13:03;11.80;99.90
52979;DHT22;63430;53.186;6.598;2023-03-23T02:15:07;11.40;99.90
52979;DHT22;63430;53.186;6.598;2023-03-23T02:17:15;11.00;99.90
52979;DHT22;63430;53.186;6.598;2023-03-23T02:19:41;11.50;99.90
52979;DHT22;63430;53.186;6.598;2023-03-23T02:24:59;10.90;99.90
52979;DHT22;63430;53.186;6.598;2023-03-23T02:27:13;11.10;99.90
52979;DHT22;63430;53.186;6.598;2023-03-23T02:29:56;11.30;99.90
52979;DHT22;63430;53.186;6.598;2023-03-23T02:32:21;11.10;99.90
52979;DHT22;63430;53.186;6.598;2023-03-23T02:34:28;11.10;99.90
52979;DHT22;63430;53.186;6.598;2023-03-23T02:36:37;11.10;99.90
52979;DHT22;63430;53.186;6.598;2023-03-23T02:38:46;11.10;99.90
52979;DHT22;63430;53.186;6.598;2023-03-23T02:40:54;11.50;99.90
52979;DHT22;63430;53.186;6.598;2023-03-23T02:43:00;11.10;99.90
52979;DHT22;63430;53.186;6.598;2023-03-23T02:45:06;11.10;99.90
52979;DHT22;63430;53.186;6.598;2023-03-23T02:47:14;11.10;99.90
52979;DHT22;63430;53.186;6.598;2023-03-23T02:49:19;11.20;99.90
52979;DHT22;63430;53.186;6.598;2023-03-23T02:51:27;11.20;99.90
52979;DHT22;63430;53.186;6.598;2023-03-23T02:53:45;11.20;99.90
52979;DHT22;63430;53.186;6.598;2023-03-23T02:55:48;11.10;99.90
52979;DHT22;63430;53.186;6.598;2023-03-23T02:57:56;11.10;99.90
52979;DHT22;63430;53.186;6.598;2023-03-23T02:59:59;11.20;99.90
52979;DHT22;63430;53.186;6.598;2023-03-23T03:02:06;11.20;99.90
52979;DHT22;63430;53.186;6.598;2023-03-23T03:04:12;11.20;99.90
52979;DHT22;63430;53.186;6.598;2023-03-23T03:06:30;11.20;99.90
52979;DHT22;63430;53.186;6.598;2023-03-23T03:08:39;11.40;99.90
52979;DHT22;63430;53.186;6.598;2023-03-23T03:10:51;11.20;99.90
52979;DHT22;63430;53.186;6.598;2023-03-23T03:13:02;11.20;99.90
52979;DHT22;63430;53.186;6.598;2023-03-23T03:15:13;11.20;99.90
52979;DHT22;63430;53.186;6.598;2023-03-23T03:17:22;11.20;99.90
52979;DHT22;63430;53.186;6.598;2023-03-23T03:19:27;11.20;99.90
52979;DHT22;63430;53.186;6.598;2023-03-23T03:21:38;11.30;99.90
52979;DHT22;63430;53.186;6.598;2023-03-23T03:23:45;11.20;99.90
52979;DHT22;63430;53.186;6.598;2023-03-23T03:25:49;11.30;99.90
52979;DHT22;63430;53.186;6.598;2023-03-23T03:28:01;12.10;99.90
52979;DHT22;63430;53.186;6.598;2023-03-23T03:30:21;11.40;99.90
52979;DHT22;63430;53.186;6.598;2023-03-23T03:32:31;11.20;99.90
52979;DHT22;63430;53.186;6.598;2023-03-23T03:34:35;11.10;99.90
52979;DHT22;63430;53.186;6.598;2023-03-23T03:36:42;11.20;99.90
52979;DHT22;63430;53.186;6.598;2023-03-23T03:38:47;11.10;99.90
52979;DHT22;63430;53.186;6.598;2023-03-23T03:40:52;11.10;99.90
52979;DHT22;63430;53.186;6.598;2023-03-23T03:43:01;11.20;99.90
52979;DHT22;63430;53.186;6.598;2023-03-23T03:45:10;11.10;99.90
52979;DHT22;63430;53.186;6.598;2023-03-23T03:47:14;10.40;99.90
52979;DHT22;63430;53.186;6.598;2023-03-23T03:49:17;11.10;99.90
52979;DHT22;63430;53.186;6.598;2023-03-23T03:51:20;11.10;99.90
52979;DHT22;63430;53.186;6.598;2023-03-23T03:53:30;11.30;99.90
52979;DHT22;63430;53.186;6.598;2023-03-23T03:55:33;11.20;99.90
52979;DHT22;63430;53.186;6.598;2023-03-23T03:57:46;11.10;99.90
52979;DHT22;63430;53.186;6.598;2023-03-23T04:00:17;11.10;99.90
52979;DHT22;63430;53.186;6.598;2023-03-23T04:02:25;11.00;99.90
52979;DHT22;63430;53.186;6.598;2023-03-23T04:04:31;11.00;99.90
52979;DHT22;63430;53.186;6.598;2023-03-23T04:06:35;10.40;99.90
52979;DHT22;63430;53.186;6.598;2023-03-23T04:08:43;11.80;99.90
52979;DHT22;63430;53.186;6.598;2023-03-23T04:11:08;10.80;99.90
52979;DHT22;63430;53.186;6.598;2023-03-23T04:13:51;10.80;99.90
52979;DHT22;63430;53.186;6.598;2023-03-23T04:15:56;10.30;99.90
52979;DHT22;63430;53.186;6.598;2023-03-23T04:18:12;10.90;99.90
52979;DHT22;63430;53.186;6.598;2023-03-23T04:20:19;11.10;99.90
52979;DHT22;63430;53.186;6.598;2023-03-23T04:22:33;10.40;99.90
52979;DHT22;63430;53.186;6.598;2023-03-23T04:24:40;11.10;99.90
52979;DHT22;63430;53.186;6.598;2023-03-23T04:26:58;10.40;99.90
52979;DHT22;63430;53.186;6.598;2023-03-23T04:29:05;10.00;99.90
52979;DHT22;63430;53.186;6.598;2023-03-23T04:31:09;10.00;99.90
52979;DHT22;63430;53.186;6.598;2023-03-23T04:33:20;10.00;99.90
52979;DHT22;63430;53.186;6.598;2023-03-23T04:35:25;10.30;99.90
52979;DHT22;63430;53.186;6.598;2023-03-23T04:37:42;10.10;99.90
52979;DHT22;63430;53.186;6.598;2023-03-23T04:39:51;10.00;99.90
52979;DHT22;63430;53.186;6.598;2023-03-23T04:42:04;9.90;99.90
52979;DHT22;63430;53.186;6.598;2023-03-23T04:44:43;9.90;99.90
52979;DHT22;63430;53.186;6.598;2023-03-23T04:47:08;9.40;99.90
52979;DHT22;63430;53.186;6.598;2023-03-23T04:49:20;9.90;99.90
52979;DHT22;63430;53.186;6.598;2023-03-23T04:51:30;9.90;99.90
52979;DHT22;63430;53.186;6.598;2023-03-23T04:53:46;10.30;99.90
52979;DHT22;63430;53.186;6.598;2023-03-23T04:55:51;10.10;99.90
52979;DHT22;63430;53.186;6.598;2023-03-23T04:57:54;10.70;99.90
52979;DHT22;63430;53.186;6.598;2023-03-23T05:00:12;10.70;99.90
52979;DHT22;63430;53.186;6.598;2023-03-23T05:02:22;10.30;99.90
52979;DHT22;63430;53.186;6.598;2023-03-23T05:04:30;10.30;99.90
52979;DHT22;63430;53.186;6.598;2023-03-23T05:06:39;10.40;99.90
52979;DHT22;63430;53.186;6.598;2023-03-23T05:08:50;10.40;99.90
52979;DHT22;63430;53.186;6.598;2023-03-23T05:11:00;10.40;99.90
52979;DHT22;63430;53.186;6.598;2023-03-23T05:13:07;9.70;99.90
52979;DHT22;63430;53.186;6.598;2023-03-23T05:15:12;11.40;99.90
52979;DHT22;63430;53.186;6.598;2023-03-23T05:17:15;11.10;99.90
52979;DHT22;63430;53.186;6.598;2023-03-23T05:19:21;10.50;99.90
52979;DHT22;63430;53.186;6.598;2023-03-23T05:21:25;10.40;99.90
52979;DHT22;63430;53.186;6.598;2023-03-23T05:23:29;10.60;99.90
52979;DHT22;63430;53.186;6.598;2023-03-23T05:25:41;10.50;99.90
52979;DHT22;63430;53.186;6.598;2023-03-23T05:27:56;10.50;99.90
52979;DHT22;63430;53.186;6.598;2023-03-23T05:30:14;10.50;99.90
52979;DHT22;63430;53.186;6.598;2023-03-23T05:32:19;10.50;99.90
52979;DHT22;63430;53.186;6.598;2023-03-23T05:34:22;10.70;99.90
52979;DHT22;63430;53.186;6.598;2023-03-23T05:36:32;10.50;99.90
52979;DHT22;63430;53.186;6.598;2023-03-23T05:38:55;10.60;99.90
52979;DHT22;63430;53.186;6.598;2023-03-23T05:41:00;10.60;99.90
52979;DHT22;63430;53.186;6.598;2023-03-23T05:43:14;10.60;99.90
52979;DHT22;63430;53.186;6.598;2023-03-23T05:45:30;11.50;99.90
52979;DHT22;63430;53.186;6.598;2023-03-23T05:47:34;11.60;99.90
52979;DHT22;63430;53.186;6.598;2023-03-23T05:49:43;10.50;99.90
52979;DHT22;63430;53.186;6.598;2023-03-23T05:51:51;10.30;99.90
52979;DHT22;63430;53.186;6.598;2023-03-23T05:53:54;10.50;99.90
52979;DHT22;63430;53.186;6.598;2023-03-23T05:55:59;11.50;99.90
52979;DHT22;63430;53.186;6.598;2023-03-23T05:58:24;11.30;99.90
52979;DHT22;63430;53.186;6.598;2023-03-23T06:00:32;10.60;99.90
52979;DHT22;63430;53.186;6.598;2023-03-23T06:02:54;10.60;99.90
52979;DHT22;63430;53.186;6.598;2023-03-23T06:05:08;10.60;99.90
52979;DHT22;63430;53.186;6.598;2023-03-23T06:07:14;10.60;99.90
52979;DHT22;63430;53.186;6.598;2023-03-23T06:09:28;10.60;99.90
52979;DHT22;63430;53.186;6.598;2023-03-23T06:12:08;10.50;99.90
52979;DHT22;63430;53.186;6.598;2023-03-23T06:14:53;10.50;99.90
52979;DHT22;63430;53.186;6.598;2023-03-23T06:17:09;10.50;99.90
52979;DHT22;63430;53.186;6.598;2023-03-23T06:19:16;11.40;99.90
52979;DHT22;63430;53.186;6.598;2023-03-23T06:21:38;10.60;99.90
52979;DHT22;63430;53.186;6.598;2023-03-23T06:24:14;9.70;99.90
52979;DHT22;63430;53.186;6.598;2023-03-23T06:26:18;11.70;99.90
52979;DHT22;63430;53.186;6.598;2023-03-23T06:28:29;10.70;99.90
52979;DHT22;63430;53.186;6.598;2023-03-23T06:30:42;10.70;99.90
52979;DHT22;63430;53.186;6.598;2023-03-23T06:32:46;10.70;99.90
52979;DHT22;63430;53.186;6.598;2023-03-23T06:34:57;10.70;99.90
52979;DHT22;63430;53.186;6.598;2023-03-23T06:37:27;11.30;99.90
52979;DHT22;63430;53.186;6.598;2023-03-23T06:39:50;10.80;99.90
52979;DHT22;63430;53.186;6.598;2023-03-23T06:42:26;10.80;99.90
52979;DHT22;63430;53.186;6.598;2023-03-23T06:44:49;10.70;99.90
52979;DHT22;63430;53.186;6.598;2023-03-23T06:46:55;10.60;99.90
52979;DHT22;63430;53.186;6.598;2023-03-23T06:49:09;10.50;99.90
52979;DHT22;63430;53.186;6.598;2023-03-23T06:51:23;10.40;99.90
52979;DHT22;63430;53.186;6.598;2023-03-23T06:53:28;10.30;99.90
52979;DHT22;63430;53.186;6.598;2023-03-23T06:55:34;9.80;99.90
52979;DHT22;63430;53.186;6.598;2023-03-23T06:57:41;10.20;99.90
52979;DHT22;63430;53.186;6.598;2023-03-23T06:59:48;10.60;99.90
52979;DHT22;63430;53.186;6.598;2023-03-23T07:01:54;9.60;99.90
52979;DHT22;63430;53.186;6.598;2023-03-23T07:04:03;9.40;99.90
52979;DHT22;63430;53.186;6.598;2023-03-23T07:06:24;10.00;99.90
52979;DHT22;63430;53.186;6.598;2023-03-23T07:08:42;10.10;99.90
52979;DHT22;63430;53.186;6.598;2023-03-23T07:11:00;10.10;99.90
52979;DHT22;63430;53.186;6.598;2023-03-23T07:13:10;9.60;99.90
52979;DHT22;63430;53.186;6.598;2023-03-23T07:15:28;10.10;99.90
52979;DHT22;63430;53.186;6.598;2023-03-23T07:17:44;9.30;99.90
52979;DHT22;63430;53.186;6.598;2023-03-23T07:19:57;10.10;99.90
52979;DHT22;63430;53.186;6.598;2023-03-23T07:22:07;10.10;99.90
52979;DHT22;63430;53.186;6.598;2023-03-23T07:24:28;11.20;99.90
52979;DHT22;63430;53.186;6.598;2023-03-23T07:26:52;10.80;99.90
52979;DHT22;63430;53.186;6.598;2023-03-23T07:29:06;10.70;99.90
52979;DHT22;63430;53.186;6.598;2023-03-23T07:31:19;10.40;99.90
52979;DHT22;63430;53.186;6.598;2023-03-23T07:33:25;10.40;99.90
52979;DHT22;63430;53.186;6.598;2023-03-23T07:35:34;11.00;99.90
52979;DHT22;63430;53.186;6.598;2023-03-23T07:37:47;10.60;99.90
52979;DHT22;63430;53.186;6.598;2023-03-23T07:39:57;10.70;99.90
52979;DHT22;63430;53.186;6.598;2023-03-23T07:42:03;10.80;99.90
52979;DHT22;63430;53.186;6.598;2023-03-23T07:44:17;10.20;99.90
52979;DHT22;63430;53.186;6.598;2023-03-23T07:46:19;10.80;99.90
52979;DHT22;63430;53.186;6.598;2023-03-23T07:48:44;10.80;99.90
52979;DHT22;63430;53.186;6.598;2023-03-23T07:51:08;10.90;99.90
52979;DHT22;63430;53.186;6.598;2023-03-23T07:53:12;10.90;99.90
52979;DHT22;63430;53.186;6.598;2023-03-23T07:55:18;11.00;99.90
52979;DHT22;63430;53.186;6.598;2023-03-23T07:57:38;11.00;99.90
52979;DHT22;63430;53.186;6.598;2023-03-23T07:59:43;11.00;99.90
52979;DHT22;63430;53.186;6.598;2023-03-23T08:01:46;11.10;99.90
52979;DHT22;63430;53.186;6.598;2023-03-23T08:04:11;11.30;99.90
52979;DHT22;63430;53.186;6.598;2023-03-23T08:06:35;11.10;99.90
52979;DHT22;63430;53.186;6.598;2023-03-23T08:09:05;11.10;99.90
52979;DHT22;63430;53.186;6.598;2023-03-23T08:11:37;11.20;99.90
52979;DHT22;63430;53.186;6.598;2023-03-23T08:14:02;11.20;99.90
52979;DHT22;63430;53.186;6.598;2023-03-23T08:16:31;11.20;99.90
52979;DHT22;63430;53.186;6.598;2023-03-23T08:18:47;11.20;99.90
52979;DHT22;63430;53.186;6.598;2023-03-23T08:21:21;11.20;99.90
52979;DHT22;63430;53.186;6.598;2023-03-23T08:23:56;11.20;99.90
52979;DHT22;63430;53.186;6.598;2023-03-23T08:26:17;11.20;99.90
52979;DHT22;63430;53.186;6.598;2023-03-23T08:28:31;11.60;99.90
52979;DHT22;63430;53.186;6.598;2023-03-23T08:30:54;11.30;99.90
52979;DHT22;63430;53.186;6.598;2023-03-23T08:33:09;11.30;99.90
52979;DHT22;63430;53.186;6.598;2023-03-23T08:35:36;11.30;99.90
52979;DHT22;63430;53.186;6.598;2023-03-23T08:37:58;11.30;99.90
52979;DHT22;63430;53.186;6.598;2023-03-23T08:40:32;11.90;99.90
52979;DHT22;63430;53.186;6.598;2023-03-23T08:42:55;11.30;99.90
52979;DHT22;63430;53.186;6.598;2023-03-23T08:45:24;11.30;99.90
52979;DHT22;63430;53.186;6.598;2023-03-23T08:48:14;11.20;99.90
52979;DHT22;63430;53.186;6.598;2023-03-23T08:50:38;11.40;99.90
52979;DHT22;63430;53.186;6.598;2023-03-23T08:53:09;11.40;99.90
52979;DHT22;63430;53.186;6.598;2023-03-23T08:55:34;11.40;99.90
52979;DHT22;63430;53.186;6.598;2023-03-23T08:58:03;10.90;99.90
52979;DHT22;63430;53.186;6.598;2023-03-23T09:00:30;11.70;99.90
52979;DHT22;63430;53.186;6.598;2023-03-23T09:02:50;12.80;99.90
52979;DHT22;63430;53.186;6.598;2023-03-23T09:04:57;12.00;99.90
52979;DHT22;63430;53.186;6.598;2023-03-23T09:07:18;12.10;99.90
52979;DHT22;63430;53.186;6.598;2023-03-23T09:09:23;12.10;99.90
52979;DHT22;63430;53.186;6.598;2023-03-23T09:11:26;12.20;99.90
52979;DHT22;63430;53.186;6.598;2023-03-23T09:13:29;12.30;99.90
52979;DHT22;63430;53.186;6.598;2023-03-23T09:15:32;12.30;99.90
52979;DHT22;63430;53.186;6.598;2023-03-23T09:17:44;12.40;99.90
52979;DHT22;63430;53.186;6.598;2023-03-23T09:19:47;12.30;99.90
52979;DHT22;63430;53.186;6.598;2023-03-23T09:21:56;12.20;99.90
52979;DHT22;63430;53.186;6.598;2023-03-23T09:23:59;12.90;99.90
52979;DHT22;63430;53.186;6.598;2023-03-23T09:26:06;12.20;99.90
52979;DHT22;63430;53.186;6.598;2023-03-23T09:28:09;12.20;99.90
52979;DHT22;63430;53.186;6.598;2023-03-23T09:30:14;12.20;99.90
52979;DHT22;63430;53.186;6.598;2023-03-23T09:32:18;12.20;99.90
52979;DHT22;63430;53.186;6.598;2023-03-23T09:34:22;12.20;99.90
52979;DHT22;63430;53.186;6.598;2023-03-23T09:36:25;12.20;99.90
52979;DHT22;63430;53.186;6.598;2023-03-23T09:38:29;12.40;99.90
52979;DHT22;63430;53.186;6.598;2023-03-23T09:40:42;12.60;99.90
52979;DHT22;63430;53.186;6.598;2023-03-23T09:43:13;12.70;99.90
52979;DHT22;63430;53.186;6.598;2023-03-23T09:45:25;12.80;99.90
52979;DHT22;63430;53.186;6.598;2023-03-23T09:47:38;13.00;99.90
52979;DHT22;63430;53.186;6.598;2023-03-23T09:49:45;13.20;99.90
52979;DHT22;63430;53.186;6.598;2023-03-23T09:51:53;13.20;99.90
52979;DHT22;63430;53.186;6.598;2023-03-23T09:53:59;13.20;99.90
52979;DHT22;63430;53.186;6.598;2023-03-23T09:56:10;13.90;99.90
52979;DHT22;63430;53.186;6.598;2023-03-23T09:58:20;13.00;99.90
52979;DHT22;63430;53.186;6.598;2023-03-23T10:00:30;13.30;99.90
52979;DHT22;63430;53.186;6.598;2023-03-23T10:02:38;13.70;99.90
52979;DHT22;63430;53.186;6.598;2023-03-23T10:04:46;13.40;99.90
52979;DHT22;63430;53.186;6.598;2023-03-23T10:06:50;12.80;99.90
52979;DHT22;63430;53.186;6.598;2023-03-23T10:08:56;13.50;99.90
52979;DHT22;63430;53.186;6.598;2023-03-23T10:11:03;13.80;99.90
52979;DHT22;63430;53.186;6.598;2023-03-23T10:13:22;14.50;99.90
52979;DHT22;63430;53.186;6.598;2023-03-23T10:15:28;13.90;99.90
52979;DHT22;63430;53.186;6.598;2023-03-23T10:17:35;14.20;99.90
52979;DHT22;63430;53.186;6.598;2023-03-23T10:19:46;13.90;99.90
52979;DHT22;63430;53.186;6.598;2023-03-23T10:21:52;14.00;99.90
52979;DHT22;63430;53.186;6.598;2023-03-23T10:23:59;14.00;99.90
52979;DHT22;63430;53.186;6.598;2023-03-23T10:26:06;14.00;99.90
52979;DHT22;63430;53.186;6.598;2023-03-23T10:28:12;14.00;99.90
52979;DHT22;63430;53.186;6.598;2023-03-23T10:30:22;14.00;99.90
52979;DHT22;63430;53.186;6.598;2023-03-23T10:32:40;14.10;99.90
52979;DHT22;63430;53.186;6.598;2023-03-23T10:34:49;14.20;99.90
52979;DHT22;63430;53.186;6.598;2023-03-23T10:36:59;14.20;99.90
52979;DHT22;63430;53.186;6.598;2023-03-23T10:39:10;14.30;99.90
52979;DHT22;63430;53.186;6.598;2023-03-23T10:41:19;14.40;99.90
52979;DHT22;63430;53.186;6.598;2023-03-23T10:43:23;14.30;99.90
52979;DHT22;63430;53.186;6.598;2023-03-23T10:45:33;14.40;99.90
52979;DHT22;63430;53.186;6.598;2023-03-23T10:47:38;14.40;99.90
52979;DHT22;63430;53.186;6.598;2023-03-23T10:49:45;14.50;99.90
52979;DHT22;63430;53.186;6.598;2023-03-23T10:51:55;14.60;99.90
52979;DHT22;63430;53.186;6.598;2023-03-23T10:54:02;14.70;99.90
52979;DHT22;63430;53.186;6.598;2023-03-23T10:56:22;14.70;99.90
52979;DHT22;63430;53.186;6.598;2023-03-23T10:58:29;14.60;99.90
52979;DHT22;63430;53.186;6.598;2023-03-23T11:00:41;14.60;99.90
52979;DHT22;63430;53.186;6.598;2023-03-23T11:02:46;14.60;99.90
52979;DHT22;63430;53.186;6.598;2023-03-23T11:04:59;14.50;99.90
52979;DHT22;63430;53.186;6.598;2023-03-23T11:07:19;15.10;99.90
52979;DHT22;63430;53.186;6.598;2023-03-23T11:09:36;14.20;99.90
52979;DHT22;63430;53.186;6.598;2023-03-23T11:11:47;14.30;99.90
52979;DHT22;63430;53.186;6.598;2023-03-23T11:13:57;14.20;99.90
52979;DHT22;63430;53.186;6.598;2023-03-23T11:16:04;14.10;99.90
52979;DHT22;63430;53.186;6.598;2023-03-23T11:18:11;14.00;99.90
52979;DHT22;63430;53.186;6.598;2023-03-23T11:20:20;13.80;99.90
52979;DHT22;63430;53.186;6.598;2023-03-23T11:22:26;13.80;99.90
52979;DHT22;63430;53.186;6.598;2023-03-23T11:24:33;13.90;99.90
52979;DHT22;63430;53.186;6.598;2023-03-23T11:26:57;14.00;99.90
52979;DHT22;63430;53.186;6.598;2023-03-23T11:29:08;13.80;99.90
52979;DHT22;63430;53.186;6.598;2023-03-23T11:31:21;14.00;99.90
52979;DHT22;63430;53.186;6.598;2023-03-23T11:33:28;14.60;99.90
52979;DHT22;63430;53.186;6.598;2023-03-23T11:35:31;14.20;99.90
52979;DHT22;63430;53.186;6.598;2023-03-23T11:37:35;14.20;99.90
52979;DHT22;63430;53.186;6.598;2023-03-23T11:39:48;14.20;99.90
52979;DHT22;63430;53.186;6.598;2023-03-23T11:41:51;14.30;99.90
52979;DHT22;63430;53.186;6.598;2023-03-23T11:44:11;14.30;99.90
52979;DHT22;63430;53.186;6.598;2023-03-23T11:46:24;14.20;99.90
52979;DHT22;63430;53.186;6.598;2023-03-23T11:48:35;14.30;97.10
52979;DHT22;63430;53.186;6.598;2023-03-23T11:50:51;14.10;96.50
52979;DHT22;63430;53.186;6.598;2023-03-23T11:53:02;14.70;99.90
52979;DHT22;63430;53.186;6.598;2023-03-23T11:55:10;14.10;99.20
52979;DHT22;63430;53.186;6.598;2023-03-23T11:57:19;14.10;99.90
52979;DHT22;63430;53.186;6.598;2023-03-23T11:59:28;14.20;99.90
52979;DHT22;63430;53.186;6.598;2023-03-23T12:01:46;14.90;99.90
52979;DHT22;63430;53.186;6.598;2023-03-23T12:06:24;14.10;99.90
52979;DHT22;63430;53.186;6.598;2023-03-23T12:08:47;14.20;97.00
52979;DHT22;63430;53.186;6.598;2023-03-23T12:10:56;14.20;95.60
52979;DHT22;63430;53.186;6.598;2023-03-23T12:13:14;14.30;95.40
52979;DHT22;63430;53.186;6.598;2023-03-23T12:15:30;14.30;96.10
52979;DHT22;63430;53.186;6.598;2023-03-23T12:17:47;15.30;97.00
52979;DHT22;63430;53.186;6.598;2023-03-23T12:20:01;14.40;96.40
52979;DHT22;63430;53.186;6.598;2023-03-23T12:22:26;14.50;96.80
52979;DHT22;63430;53.186;6.598;2023-03-23T12:24:43;14.60;96.40
52979;DHT22;63430;53.186;6.598;2023-03-23T12:26:52;14.80;95.70
52979;DHT22;63430;53.186;6.598;2023-03-23T12:29:23;14.40;77.30
52979;DHT22;63430;53.186;6.598;2023-03-23T12:31:38;14.20;84.70
52979;DHT22;63430;53.186;6.598;2023-03-23T12:33:53;14.20;94.00
52979;DHT22;63430;53.186;6.598;2023-03-23T12:36:04;14.40;81.50
52979;DHT22;63430;53.186;6.598;2023-03-23T12:38:28;14.60;89.90
52979;DHT22;63430;53.186;6.598;2023-03-23T12:40:48;14.80;69.80
52979;DHT22;63430;53.186;6.598;2023-03-23T12:42:58;15.00;82.10
52979;DHT22;63430;53.186;6.598;2023-03-23T12:45:15;15.10;68.60
52979;DHT22;63430;53.186;6.598;2023-03-23T12:47:29;15.10;72.50
52979;DHT22;63430;53.186;6.598;2023-03-23T12:49:39;15.10;75.00
52979;DHT22;63430;53.186;6.598;2023-03-23T12:51:51;14.90;66.00
52979;DHT22;63430;53.186;6.598;2023-03-23T12:54:03;14.80;70.90
52979;DHT22;63430;53.186;6.598;2023-03-23T12:56:14;14.60;78.10
52979;DHT22;63430;53.186;6.598;2023-03-23T12:58:21;14.60;84.40
52979;DHT22;63430;53.186;6.598;2023-03-23T13:00:28;14.70;83.90
52979;DHT22;63430;53.186;6.598;2023-03-23T13:02:36;14.70;78.10
52979;DHT22;63430;53.186;6.598;2023-03-23T13:04:45;14.80;81.60
52979;DHT22;63430;53.186;6.598;2023-03-23T13:06:53;14.80;82.90
52979;DHT22;63430;53.186;6.598;2023-03-23T13:08:59;14.80;84.30
52979;DHT22;63430;53.186;6.598;2023-03-23T13:11:14;15.60;87.80
52979;DHT22;63430;53.186;6.598;2023-03-23T13:13:24;15.00;88.20
52979;DHT22;63430;53.186;6.598;2023-03-23T13:15:44;14.40;86.60
52979;DHT22;63430;53.186;6.598;2023-03-23T13:17:58;14.90;79.10
52979;DHT22;63430;53.186;6.598;2023-03-23T13:20:34;14.60;85.50
52979;DHT22;63430;53.186;6.598;2023-03-23T13:22:48;14.70;80.40
52979;DHT22;63430;53.186;6.598;2023-03-23T13:24:56;14.20;88.00
52979;DHT22;63430;53.186;6.598;2023-03-23T13:27:00;14.90;92.60
52979;DHT22;63430;53.186;6.598;2023-03-23T13:29:15;13.90;94.40
52979;DHT22;63430;53.186;6.598;2023-03-23T13:31:26;14.20;93.60
52979;DHT22;63430;53.186;6.598;2023-03-23T13:33:34;14.50;97.20
52979;DHT22;63430;53.186;6.598;2023-03-23T13:35:49;14.00;97.70
52979;DHT22;63430;53.186;6.598;2023-03-23T13:37:55;14.10;98.70
52979;DHT22;63430;53.186;6.598;2023-03-23T13:40:15;14.40;99.90
52979;DHT22;63430;53.186;6.598;2023-03-23T13:42:23;14.60;99.90
52979;DHT22;63430;53.186;6.598;2023-03-23T13:44:41;14.80;99.90
52979;DHT22;63430;53.186;6.598;2023-03-23T13:46:56;15.00;99.90
52979;DHT22;63430;53.186;6.598;2023-03-23T13:49:13;15.10;99.20
52979;DHT22;63430;53.186;6.598;2023-03-23T13:51:34;15.20;92.80
52979;DHT22;63430;53.186;6.598;2023-03-23T13:53:46;15.00;97.70
52979;DHT22;63430;53.186;6.598;2023-03-23T13:56:07;15.10;94.80
52979;DHT22;63430;53.186;6.598;2023-03-23T13:58:28;15.10;95.40